sensor_id;sensor_type;location;lat;lon;timestamp;P1;durP1;ratioP1;P2;durP2;ratioP2
38853;SDS011;24606;51.992;4.198;2023-04-01T00:02:37;137.98;;;14.93;;
38853;SDS011;24606;51.992;4.198;2023-04-01T00:07:40;149.35;;;16.15;;
38853;SDS011;24606;51.992;4.198;2023-04-01T00:12:42;135.20;;;14.85;;
38853;SDS011;24606;51.992;4.198;2023-04-01T00:17:44;119.45;;;14.30;;
38853;SDS011;24606;51.992;4.198;2023-04-01T00:22:47;125.10;;;14.20;;
38853;SDS011;24606;51.992;4.198;2023-04-01T00:27:49;91.97;;;11.82;;
38853;SDS011;24606;51.992;4.198;2023-04-01T00:32:51;87.80;;;11.45;;
38853;SDS011;24606;51.992;4.198;2023-04-01T00:37:54;79.03;;;10.73;;
38853;SDS011;24606;51.992;4.198;2023-04-01T00:42:57;103.03;;;14.18;;
38853;SDS011;24606;51.992;4.198;2023-04-01T00:47:59;100.97;;;11.40;;
38853;SDS011;24606;51.992;4.198;2023-04-01T00:53:07;81.63;;;12.13;;
38853;SDS011;24606;51.992;4.198;2023-04-01T00:58:11;101.65;;;13.90;;
38853;SDS011;24606;51.992;4.198;2023-04-01T01:03:17;99.43;;;12.93;;
38853;SDS011;24606;51.992;4.198;2023-04-01T01:08:21;87.87;;;12.80;;
38853;SDS011;24606;51.992;4.198;2023-04-01T01:13:33;96.60;;;13.23;;
38853;SDS011;24606;51.992;4.198;2023-04-01T01:18:42;60.03;;;8.98;;
38853;SDS011;24606;51.992;4.198;2023-04-01T01:23:58;45.75;;;7.50;;
38853;SDS011;24606;51.992;4.198;2023-04-01T01:29:16;38.28;;;6.22;;
38853;SDS011;24606;51.992;4.198;2023-04-01T01:34:40;34.80;;;6.38;;
38853;SDS011;24606;51.992;4.198;2023-04-01T01:39:52;38.13;;;5.95;;
38853;SDS011;24606;51.992;4.198;2023-04-01T01:44:57;44.72;;;8.25;;
38853;SDS011;24606;51.992;4.198;2023-04-01T01:50:01;40.80;;;8.18;;
38853;SDS011;24606;51.992;4.198;2023-04-01T02:00:27;26.40;;;5.57;;
38853;SDS011;24606;51.992;4.198;2023-04-01T02:05:30;25.08;;;3.85;;
38853;SDS011;24606;51.992;4.198;2023-04-01T02:10:35;16.08;;;3.63;;
38853;SDS011;24606;51.992;4.198;2023-04-01T02:15:42;14.57;;;2.65;;
38853;SDS011;24606;51.992;4.198;2023-04-01T02:20:48;8.93;;;2.50;;
38853;SDS011;24606;51.992;4.198;2023-04-01T02:25:52;15.70;;;3.20;;
38853;SDS011;24606;51.992;4.198;2023-04-01T02:30:55;14.82;;;4.55;;
38853;SDS011;24606;51.992;4.198;2023-04-01T02:36:00;32.28;;;7.03;;
38853;SDS011;24606;51.992;4.198;2023-04-01T02:41:03;34.35;;;7.85;;
38853;SDS011;24606;51.992;4.198;2023-04-01T02:46:06;32.38;;;7.15;;
38853;SDS011;24606;51.992;4.198;2023-04-01T02:51:08;34.45;;;8.52;;
38853;SDS011;24606;51.992;4.198;2023-04-01T02:56:11;53.63;;;10.23;;
38853;SDS011;24606;51.992;4.198;2023-04-01T03:06:16;49.85;;;10.43;;
38853;SDS011;24606;51.992;4.198;2023-04-01T03:11:19;52.05;;;10.65;;
38853;SDS011;24606;51.992;4.198;2023-04-01T03:16:21;31.42;;;9.35;;
38853;SDS011;24606;51.992;4.198;2023-04-01T03:21:23;50.80;;;12.18;;
38853;SDS011;24606;51.992;4.198;2023-04-01T03:26:26;41.13;;;10.98;;
38853;SDS011;24606;51.992;4.198;2023-04-01T03:31:28;54.05;;;12.18;;
38853;SDS011;24606;51.992;4.198;2023-04-01T03:36:30;52.88;;;13.35;;
38853;SDS011;24606;51.992;4.198;2023-04-01T03:41:34;80.57;;;14.60;;
38853;SDS011;24606;51.992;4.198;2023-04-01T03:46:37;55.17;;;13.07;;
38853;SDS011;24606;51.992;4.198;2023-04-01T03:51:39;56.03;;;14.50;;
38853;SDS011;24606;51.992;4.198;2023-04-01T03:56:44;55.75;;;13.63;;
38853;SDS011;24606;51.992;4.198;2023-04-01T04:01:46;25.30;;;9.50;;
38853;SDS011;24606;51.992;4.198;2023-04-01T04:06:48;27.60;;;8.67;;
38853;SDS011;24606;51.992;4.198;2023-04-01T04:11:52;42.43;;;9.43;;
38853;SDS011;24606;51.992;4.198;2023-04-01T04:16:53;31.65;;;8.43;;
38853;SDS011;24606;51.992;4.198;2023-04-01T04:21:55;29.88;;;7.85;;
38853;SDS011;24606;51.992;4.198;2023-04-01T04:26:58;32.35;;;7.88;;
38853;SDS011;24606;51.992;4.198;2023-04-01T04:32:01;38.38;;;8.90;;
38853;SDS011;24606;51.992;4.198;2023-04-01T04:37:02;52.80;;;11.52;;
38853;SDS011;24606;51.992;4.198;2023-04-01T04:42:06;28.87;;;7.83;;
38853;SDS011;24606;51.992;4.198;2023-04-01T04:47:08;39.35;;;9.50;;
38853;SDS011;24606;51.992;4.198;2023-04-01T04:52:10;33.53;;;10.27;;
38853;SDS011;24606;51.992;4.198;2023-04-01T04:57:13;35.55;;;9.23;;
38853;SDS011;24606;51.992;4.198;2023-04-01T05:02:15;36.72;;;9.80;;
38853;SDS011;24606;51.992;4.198;2023-04-01T05:07:17;33.88;;;9.07;;
38853;SDS011;24606;51.992;4.198;2023-04-01T05:12:21;29.63;;;8.48;;
38853;SDS011;24606;51.992;4.198;2023-04-01T05:17:23;28.73;;;6.90;;
38853;SDS011;24606;51.992;4.198;2023-04-01T05:22:25;20.07;;;4.97;;
38853;SDS011;24606;51.992;4.198;2023-04-01T05:27:28;34.73;;;7.83;;
38853;SDS011;24606;51.992;4.198;2023-04-01T05:32:30;21.95;;;5.20;;
38853;SDS011;24606;51.992;4.198;2023-04-01T05:37:33;26.70;;;6.43;;
38853;SDS011;24606;51.992;4.198;2023-04-01T05:42:36;18.10;;;5.53;;
38853;SDS011;24606;51.992;4.198;2023-04-01T05:47:38;19.27;;;5.68;;
38853;SDS011;24606;51.992;4.198;2023-04-01T05:52:40;19.73;;;6.65;;
38853;SDS011;24606;51.992;4.198;2023-04-01T05:57:43;21.52;;;6.70;;
38853;SDS011;24606;51.992;4.198;2023-04-01T06:15:34;15.32;;;4.78;;
38853;SDS011;24606;51.992;4.198;2023-04-01T06:25:54;13.38;;;3.78;;
38853;SDS011;24606;51.992;4.198;2023-04-01T06:31:07;13.65;;;4.50;;
38853;SDS011;24606;51.992;4.198;2023-04-01T06:41:43;8.00;;;3.75;;
38853;SDS011;24606;51.992;4.198;2023-04-01T06:47:04;9.50;;;3.75;;
38853;SDS011;24606;51.992;4.198;2023-04-01T06:52:22;14.45;;;5.22;;
38853;SDS011;24606;51.992;4.198;2023-04-01T06:57:28;9.45;;;4.10;;
38853;SDS011;24606;51.992;4.198;2023-04-01T07:02:36;9.10;;;3.83;;
38853;SDS011;24606;51.992;4.198;2023-04-01T07:07:43;7.38;;;3.72;;
38853;SDS011;24606;51.992;4.198;2023-04-01T07:12:48;7.50;;;4.05;;
38853;SDS011;24606;51.992;4.198;2023-04-01T07:17:56;12.68;;;4.57;;
38853;SDS011;24606;51.992;4.198;2023-04-01T07:23:04;8.15;;;4.10;;
38853;SDS011;24606;51.992;4.198;2023-04-01T07:28:11;6.65;;;3.55;;
38853;SDS011;24606;51.992;4.198;2023-04-01T07:33:15;6.13;;;3.47;;
38853;SDS011;24606;51.992;4.198;2023-04-01T07:38:24;5.38;;;2.63;;
38853;SDS011;24606;51.992;4.198;2023-04-01T07:43:40;7.60;;;3.90;;
38853;SDS011;24606;51.992;4.198;2023-04-01T07:48:52;9.43;;;4.35;;
38853;SDS011;24606;51.992;4.198;2023-04-01T07:54:02;5.88;;;3.65;;
38853;SDS011;24606;51.992;4.198;2023-04-01T07:59:10;15.05;;;4.65;;
38853;SDS011;24606;51.992;4.198;2023-04-01T08:04:30;21.35;;;5.70;;
38853;SDS011;24606;51.992;4.198;2023-04-01T08:09:48;18.00;;;6.60;;
38853;SDS011;24606;51.992;4.198;2023-04-01T08:15:00;15.25;;;5.00;;
38853;SDS011;24606;51.992;4.198;2023-04-01T08:20:16;23.00;;;7.00;;
38853;SDS011;24606;51.992;4.198;2023-04-01T08:25:27;18.38;;;4.82;;
38853;SDS011;24606;51.992;4.198;2023-04-01T08:30:33;4.95;;;1.65;;
38853;SDS011;24606;51.992;4.198;2023-04-01T08:35:42;15.77;;;3.95;;
38853;SDS011;24606;51.992;4.198;2023-04-01T08:40:58;21.95;;;6.80;;
38853;SDS011;24606;51.992;4.198;2023-04-01T08:46:13;23.70;;;7.57;;
38853;SDS011;24606;51.992;4.198;2023-04-01T08:57:04;13.52;;;3.92;;
38853;SDS011;24606;51.992;4.198;2023-04-01T09:02:19;15.50;;;4.57;;
38853;SDS011;24606;51.992;4.198;2023-04-01T09:07:49;20.08;;;5.40;;
38853;SDS011;24606;51.992;4.198;2023-04-01T09:13:07;15.07;;;5.28;;
38853;SDS011;24606;51.992;4.198;2023-04-01T09:18:39;29.95;;;5.13;;
38853;SDS011;24606;51.992;4.198;2023-04-01T09:24:07;21.30;;;6.10;;
38853;SDS011;24606;51.992;4.198;2023-04-01T09:29:26;16.73;;;5.65;;
